Time;durP1;ratioP1;P1;durP2;ratioP2;P2;SDS_P1;SDS_P2;PMS_P1;PMS_P2;Temp;Humidity;BMP_temperature;BMP_pressure;BME280_temperature;BME280_humidity;BME280_pressure;Samples;Min_cycle;Max_cycle;Signal;HPM_P1;HPM_P2
2023/04/06 00:02:18;;;;;;;9.27;8.33;;;;;;;-145.52;100.00;65322.94;5121525;28;20481;-65
2023/04/06 00:04:47;;;;;;;13.23;9.70;;;;;;;-145.52;100.00;65322.94;5122463;28;20450;-65
2023/04/06 00:07:13;;;;;;;10.63;9.20;;;;;;;-145.52;100.00;65322.94;5122760;28;20477;-65
2023/04/06 00:09:40;;;;;;;10.13;8.70;;;;;;;-145.52;100.00;65322.94;5123408;28;20434;-65
2023/04/06 00:12:07;;;;;;;11.20;8.80;;;;;;;-145.52;100.00;65322.94;5122433;28;20478;-65
2023/04/06 00:14:34;;;;;;;10.27;8.77;;;;;;;-145.52;100.00;65322.94;5121998;28;20465;-64
2023/04/06 00:17:01;;;;;;;11.67;9.60;;;;;;;-145.52;100.00;65322.94;5120489;28;20474;-64
2023/04/06 00:19:28;;;;;;;14.13;9.37;;;;;;;-145.52;100.00;65322.94;5122560;28;20485;-64
2023/04/06 00:21:56;;;;;;;14.33;9.80;;;;;;;-145.52;100.00;65322.94;5122633;28;20595;-65
2023/04/06 00:24:22;;;;;;;13.60;8.93;;;;;;;-145.52;100.00;65322.94;5122957;28;20471;-65
2023/04/06 00:26:49;;;;;;;14.27;9.07;;;;;;;-145.52;100.00;65322.94;5121872;28;20478;-64
2023/04/06 00:29:16;;;;;;;10.50;8.30;;;;;;;-145.52;100.00;65322.94;5123110;28;20446;-65
2023/04/06 00:31:43;;;;;;;15.13;9.37;;;;;;;-145.52;100.00;65322.94;5121291;27;21021;-65
2023/04/06 00:34:10;;;;;;;13.70;9.60;;;;;;;-145.52;100.00;65322.94;5123218;28;20453;-65
2023/04/06 00:36:37;;;;;;;12.03;9.60;;;;;;;-145.52;100.00;65322.94;5121488;28;20952;-65
2023/04/06 00:39:05;;;;;;;12.47;8.50;;;;;;;-145.52;100.00;65322.94;5122960;28;20477;-64
2023/04/06 00:41:32;;;;;;;16.67;10.57;;;;;;;-145.52;100.00;65322.94;5121658;28;20481;-64
2023/04/06 00:43:59;;;;;;;13.00;9.67;;;;;;;-145.52;100.00;65322.94;5122755;28;20851;-64
2023/04/06 00:46:25;;;;;;;11.43;8.83;;;;;;;-145.52;100.00;65322.94;5121341;28;20476;-64
2023/04/06 00:48:52;;;;;;;11.33;9.07;;;;;;;-145.52;100.00;65322.94;5122078;28;20522;-64
2023/04/06 00:51:19;;;;;;;11.10;8.57;;;;;;;-145.52;100.00;65322.94;5121582;28;20470;-64
2023/04/06 00:53:45;;;;;;;10.53;9.13;;;;;;;-145.52;100.00;65322.94;5122792;28;20455;-64
2023/04/06 00:56:14;;;;;;;10.93;9.30;;;;;;;-145.52;100.00;65322.94;5121774;27;21009;-64
2023/04/06 00:58:40;;;;;;;12.03;8.90;;;;;;;-145.52;100.00;65322.94;5122583;28;20469;-64
2023/04/06 01:01:07;;;;;;;12.20;8.83;;;;;;;-145.52;100.00;65322.94;5120982;28;20477;-64
2023/04/06 01:03:34;;;;;;;11.47;9.03;;;;;;;-145.52;100.00;65322.94;5121858;28;20454;-64
2023/04/06 01:06:00;;;;;;;11.73;8.53;;;;;;;-145.52;100.00;65322.94;5121602;28;20470;-64
2023/04/06 01:08:28;;;;;;;10.50;8.57;;;;;;;-145.52;100.00;65322.94;5122179;28;20446;-64
2023/04/06 01:10:54;;;;;;;11.17;9.30;;;;;;;-145.52;100.00;65322.94;5113272;28;20482;-64
2023/04/06 01:13:22;;;;;;;12.77;9.40;;;;;;;-145.52;100.00;65322.94;5122335;28;20857;-64
2023/04/06 01:15:49;;;;;;;11.10;9.10;;;;;;;-145.52;100.00;65322.94;5121030;28;21051;-65
2023/04/06 01:18:16;;;;;;;17.03;8.90;;;;;;;-145.52;100.00;65322.94;5121573;28;20454;-65
2023/04/06 01:20:43;;;;;;;13.10;9.00;;;;;;;-145.52;100.00;65322.94;5121063;28;20462;-64
2023/04/06 01:23:11;;;;;;;11.83;9.17;;;;;;;-145.52;100.00;65322.94;5122116;28;20805;-64
2023/04/06 01:25:37;;;;;;;10.70;8.53;;;;;;;-145.52;100.00;65322.94;5120870;28;20495;-64
2023/04/06 01:28:04;;;;;;;12.53;9.20;;;;;;;-145.52;100.00;65322.94;5121213;28;20479;-65
2023/04/06 01:30:31;;;;;;;10.10;8.10;;;;;;;-145.52;100.00;65322.94;5120100;28;20560;-64
2023/04/06 01:32:58;;;;;;;11.10;8.70;;;;;;;-145.52;100.00;65322.94;5120767;28;20458;-65
2023/04/06 01:35:27;;;;;;;11.00;9.00;;;;;;;-145.52;100.00;65322.94;5121046;28;20493;-65
2023/04/06 01:37:53;;;;;;;11.90;9.00;;;;;;;-145.52;100.00;65322.94;5121800;28;20438;-64
2023/04/06 01:40:21;;;;;;;9.47;8.53;;;;;;;-145.52;100.00;65322.94;5119898;28;20497;-65
2023/04/06 01:42:48;;;;;;;12.80;9.33;;;;;;;-145.52;100.00;65322.94;5121190;28;20458;-65
2023/04/06 01:45:15;;;;;;;10.80;8.90;;;;;;;-145.52;100.00;65322.94;5120300;28;20446;-64
2023/04/06 01:47:42;;;;;;;9.60;8.50;;;;;;;-145.52;100.00;65322.94;5121168;28;20454;-65
2023/04/06 01:50:10;;;;;;;17.37;9.03;;;;;;;-145.52;100.00;65322.94;5121130;28;20495;-65
2023/04/06 01:52:36;;;;;;;11.80;8.60;;;;;;;-145.52;100.00;65322.94;5120905;28;20442;-65
2023/04/06 01:55:03;;;;;;;11.10;8.10;;;;;;;-145.52;100.00;65322.94;5121352;28;20450;-64
2023/04/06 01:57:31;;;;;;;10.60;8.77;;;;;;;-145.52;100.00;65322.94;5120499;28;20504;-64
2023/04/06 01:59:58;;;;;;;11.13;8.77;;;;;;;-145.52;100.00;65322.94;5120879;28;20953;-64
2023/04/06 02:02:25;;;;;;;17.67;11.10;;;;;;;-145.52;100.00;65322.94;5120035;28;20840;-64
2023/04/06 02:04:51;;;;;;;13.73;9.60;;;;;;;-145.52;100.00;65322.94;5117005;28;20507;-64
2023/04/06 02:07:18;;;;;;;12.50;9.57;;;;;;;-145.52;100.00;65322.94;5120546;28;20547;-65
2023/04/06 02:09:45;;;;;;;11.13;9.33;;;;;;;-145.52;100.00;65322.94;5121003;28;20442;-64
2023/04/06 02:12:12;;;;;;;13.07;9.93;;;;;;;-145.52;100.00;65322.94;5118617;28;20466;-65
2023/04/06 02:14:40;;;;;;;12.17;9.80;;;;;;;-145.52;100.00;65322.94;5121160;28;20442;-64
2023/04/06 02:17:06;;;;;;;12.13;9.17;;;;;;;-145.52;100.00;65322.94;5119918;28;20462;-65
2023/04/06 02:19:33;;;;;;;10.40;8.80;;;;;;;-145.52;100.00;65322.94;5121259;28;20478;-64
2023/04/06 02:22:00;;;;;;;11.17;9.27;;;;;;;-145.52;100.00;65322.94;5119928;28;20478;-64
2023/04/06 02:24:26;;;;;;;12.67;9.37;;;;;;;-145.52;100.00;65322.94;5120478;28;20963;-64
2023/04/06 02:26:53;;;;;;;13.77;10.00;;;;;;;-145.52;100.00;65322.94;5119885;28;20489;-64
2023/04/06 02:29:20;;;;;;;12.10;10.23;;;;;;;-145.52;100.00;65322.94;5121390;28;20495;-65
2023/04/06 02:31:48;;;;;;;11.87;8.60;;;;;;;-145.52;100.00;65322.94;5119263;28;20488;-65
2023/04/06 02:34:17;;;;;;;16.00;8.90;;;;;;;-145.52;100.00;65322.94;5118175;28;20450;-65
2023/04/06 02:36:44;;;;;;;12.50;8.80;;;;;;;-145.52;100.00;65322.94;5116465;28;20470;-64
2023/04/06 02:39:11;;;;;;;9.87;8.30;;;;;;;-145.52;100.00;65322.94;5120543;28;20450;-65
2023/04/06 02:41:37;;;;;;;10.70;9.10;;;;;;;-145.52;100.00;65322.94;5123864;27;20493;-66
2023/04/06 02:44:05;;;;;;;19.60;8.73;;;;;;;-145.52;100.00;65322.94;5125340;28;20446;-65
2023/04/06 02:46:31;;;;;;;13.93;9.00;;;;;;;-145.52;100.00;65322.94;5123801;28;21010;-65
2023/04/06 02:49:00;;;;;;;12.73;8.90;;;;;;;-145.52;100.00;65322.94;5124120;28;20504;-65
2023/04/06 02:51:28;;;;;;;10.90;9.40;;;;;;;-145.52;100.00;65322.94;5124427;28;20541;-65
2023/04/06 02:53:54;;;;;;;11.67;8.80;;;;;;;-145.52;100.00;65322.94;5123746;28;20445;-65
2023/04/06 02:56:21;;;;;;;12.03;8.67;;;;;;;-145.52;100.00;65322.94;5123775;28;20478;-65
2023/04/06 02:58:48;;;;;;;12.73;8.80;;;;;;;-145.52;100.00;65322.94;5116301;28;20476;-65
2023/04/06 03:01:14;;;;;;;12.77;9.03;;;;;;;-145.52;100.00;65322.94;5123318;28;21001;-65
2023/04/06 03:03:41;;;;;;;13.53;8.90;;;;;;;-145.52;100.00;65322.94;5123268;28;20446;-64
2023/04/06 03:06:09;;;;;;;18.47;9.33;;;;;;;-145.52;100.00;65322.94;5124143;28;20465;-65
2023/04/06 03:08:36;;;;;;;8.60;7.80;;;;;;;-145.52;100.00;65322.94;5125032;28;21029;-65
2023/04/06 03:11:03;;;;;;;11.33;8.60;;;;;;;-145.52;100.00;65322.94;5121217;28;20513;-64
2023/04/06 03:13:30;;;;;;;9.70;8.70;;;;;;;-145.52;100.00;65322.94;5125091;28;20834;-65
2023/04/06 03:15:56;;;;;;;13.50;8.50;;;;;;;-145.52;100.00;65322.94;5123334;28;20518;-65
2023/04/06 03:18:24;;;;;;;12.10;9.33;;;;;;;-145.52;100.00;65322.94;5123840;28;20442;-65
2023/04/06 03:20:53;;;;;;;9.97;8.73;;;;;;;-145.52;100.00;65322.94;5122733;28;20477;-65
2023/04/06 03:23:21;;;;;;;12.83;8.80;;;;;;;-145.52;100.00;65322.94;5124483;28;20457;-65
2023/04/06 03:25:48;;;;;;;11.10;8.40;;;;;;;-145.52;100.00;65322.94;5123333;28;20481;-65
2023/04/06 03:28:15;;;;;;;12.40;8.47;;;;;;;-145.52;100.00;65322.94;5123855;28;20515;-65
2023/04/06 03:30:42;;;;;;;12.40;9.47;;;;;;;-145.52;100.00;65322.94;5123161;28;20698;-65
2023/04/06 03:33:09;;;;;;;17.10;8.77;;;;;;;-145.52;100.00;65322.94;5124078;28;20533;-65
2023/04/06 03:35:36;;;;;;;16.33;9.23;;;;;;;-145.52;100.00;65322.94;5123591;28;21013;-65
2023/04/06 03:38:03;;;;;;;14.70;9.87;;;;;;;-145.52;100.00;65322.94;5123077;28;20450;-64
2023/04/06 03:40:31;;;;;;;9.80;8.80;;;;;;;-145.52;100.00;65322.94;5115419;28;20478;-65
2023/04/06 03:42:58;;;;;;;18.20;9.30;;;;;;;-145.52;100.00;65322.94;5123698;28;20526;-65
2023/04/06 03:45:25;;;;;;;15.93;9.70;;;;;;;-145.52;100.00;65322.94;5123164;28;20454;-65
2023/04/06 03:47:51;;;;;;;11.57;9.60;;;;;;;-145.52;100.00;65322.94;5122734;28;20499;-65
2023/04/06 03:50:18;;;;;;;10.77;8.77;;;;;;;-145.52;100.00;65322.94;5123499;27;20447;-65
2023/04/06 03:52:45;;;;;;;12.00;8.87;;;;;;;-145.52;100.00;65322.94;5122098;28;20450;-64
2023/04/06 03:55:11;;;;;;;13.53;9.07;;;;;;;-145.52;100.00;65322.94;5121780;28;20814;-64
2023/04/06 03:57:40;;;;;;;11.47;9.13;;;;;;;-145.52;100.00;65322.94;5123597;28;20442;-64
2023/04/06 04:00:08;;;;;;;12.70;9.57;;;;;;;-145.52;100.00;65322.94;5122718;28;20519;-65
2023/04/06 04:02:35;;;;;;;14.87;9.33;;;;;;;-145.52;100.00;65322.94;5123111;28;20462;-64
2023/04/06 04:05:02;;;;;;;10.00;8.40;;;;;;;-145.52;100.00;65322.94;5122875;28;20454;-64
2023/04/06 04:07:29;;;;;;;12.57;9.27;;;;;;;-145.52;100.00;65322.94;5122837;28;20486;-64
2023/04/06 04:09:56;;;;;;;12.30;8.90;;;;;;;-145.52;100.00;65322.94;5122180;28;20581;-64
2023/04/06 04:12:22;;;;;;;13.37;9.23;;;;;;;-145.52;100.00;65322.94;5121074;28;20930;-64
2023/04/06 04:14:50;;;;;;;13.20;8.60;;;;;;;-145.52;100.00;65322.94;5121262;28;20479;-64
2023/04/06 04:17:17;;;;;;;9.47;8.47;;;;;;;-145.52;100.00;65322.94;5120346;28;20503;-64
2023/04/06 04:19:44;;;;;;;10.30;7.93;;;;;;;-145.52;100.00;65322.94;5122614;28;20438;-64
2023/04/06 04:22:11;;;;;;;9.77;8.57;;;;;;;-145.52;100.00;65322.94;5121561;28;20478;-64
2023/04/06 04:24:37;;;;;;;14.53;10.57;;;;;;;-145.52;100.00;65322.94;5122787;28;20450;-65
2023/04/06 04:27:04;;;;;;;12.50;9.47;;;;;;;-145.52;100.00;65322.94;5113989;28;20486;-65
2023/04/06 04:29:31;;;;;;;14.07;10.00;;;;;;;-145.52;100.00;65322.94;5121494;28;20969;-65
2023/04/06 04:31:59;;;;;;;13.27;10.57;;;;;;;-145.52;100.00;65322.94;5116827;28;20478;-70
2023/04/06 04:34:26;;;;;;;13.93;9.30;;;;;;;-145.52;100.00;65322.94;5121743;28;20469;-69
2023/04/06 04:36:53;;;;;;;11.30;8.87;;;;;;;-145.52;100.00;65322.94;5119377;28;20470;-69
2023/04/06 04:39:20;;;;;;;11.73;10.20;;;;;;;-145.52;100.00;65322.94;5115671;28;20447;-69
2023/04/06 04:41:47;;;;;;;11.53;9.30;;;;;;;-145.52;100.00;65322.94;5120566;28;20485;-69
2023/04/06 04:44:13;;;;;;;9.97;8.97;;;;;;;-145.52;100.00;65322.94;5121215;28;20504;-68
2023/04/06 04:46:41;;;;;;;13.57;10.47;;;;;;;-145.52;100.00;65322.94;5120654;28;20542;-70
2023/04/06 04:49:09;;;;;;;14.17;9.80;;;;;;;-145.52;100.00;65322.94;5121343;28;20490;-69
2023/04/06 04:51:36;;;;;;;11.30;9.63;;;;;;;-145.52;100.00;65322.94;5121104;28;20474;-69
2023/04/06 04:54:05;;;;;;;13.00;10.03;;;;;;;-145.52;100.00;65322.94;5121371;28;20521;-69
2023/04/06 04:56:32;;;;;;;15.67;11.50;;;;;;;-145.52;100.00;65322.94;5118476;28;20478;-70
2023/04/06 04:58:59;;;;;;;16.53;10.90;;;;;;;-145.52;100.00;65322.94;5120833;28;20519;-69
2023/04/06 05:01:25;;;;;;;13.90;11.40;;;;;;;-145.52;100.00;65322.94;5120407;28;20474;-69
2023/04/06 05:03:52;;;;;;;16.50;12.07;;;;;;;-145.52;100.00;65322.94;5120699;28;21074;-68
2023/04/06 05:06:20;;;;;;;14.60;11.20;;;;;;;-145.52;100.00;65322.94;5120105;28;20485;-71
2023/04/06 05:08:47;;;;;;;12.60;10.53;;;;;;;-145.52;100.00;65322.94;5119681;28;21691;-71
2023/04/06 05:11:14;;;;;;;17.23;11.60;;;;;;;-145.52;100.00;65322.94;5119953;28;20534;-69
2023/04/06 05:13:41;;;;;;;19.60;13.07;;;;;;;-145.52;100.00;65322.94;5120541;28;20488;-69
2023/04/06 05:16:07;;;;;;;14.57;11.97;;;;;;;-145.52;100.00;65322.94;5118877;28;20474;-68
2023/04/06 05:18:34;;;;;;;16.17;13.00;;;;;;;-145.52;100.00;65322.94;5119621;28;20454;-69
2023/04/06 05:21:01;;;;;;;17.10;12.40;;;;;;;-145.52;100.00;65322.94;5117214;27;20478;-69
2023/04/06 05:23:29;;;;;;;14.30;11.80;;;;;;;-145.52;100.00;65322.94;5120470;27;20541;-70
2023/04/06 05:25:56;;;;;;;15.77;11.30;;;;;;;-145.52;100.00;65322.94;5119661;27;20557;-69
2023/04/06 05:28:23;;;;;;;10.97;9.87;;;;;;;-145.52;100.00;65322.94;5117092;28;20476;-71
2023/04/06 05:30:50;;;;;;;12.80;9.60;;;;;;;-145.52;100.00;65322.94;5120629;28;20535;-70
2023/04/06 05:33:16;;;;;;;12.00;9.50;;;;;;;-145.52;100.00;65322.94;5120385;28;20454;-70
2023/04/06 05:35:43;;;;;;;11.07;9.87;;;;;;;-145.52;100.00;65322.94;5119260;28;20474;-69
2023/04/06 05:38:10;;;;;;;14.10;9.50;;;;;;;-145.52;100.00;65322.94;5116123;28;20461;-70
2023/04/06 05:40:40;;;;;;;10.60;9.30;;;;;;;-145.52;100.00;65322.94;5113387;28;20500;-71
2023/04/06 05:43:07;;;;;;;12.40;10.47;;;;;;;-145.52;100.00;65322.94;5116526;28;20463;-70
2023/04/06 05:45:34;;;;;;;12.13;9.07;;;;;;;-145.52;100.00;65322.94;5119801;27;20480;-71
2023/04/06 05:48:01;;;;;;;12.00;9.10;;;;;;;-145.52;100.00;65322.94;5118154;28;20450;-71
2023/04/06 05:50:28;;;;;;;11.53;8.80;;;;;;;-145.52;100.00;65322.94;5117280;28;20469;-69
2023/04/06 05:52:55;;;;;;;9.70;8.70;;;;;;;-145.52;100.00;65322.94;5117936;28;20535;-69
2023/04/06 05:55:22;;;;;;;10.33;9.07;;;;;;;-145.52;100.00;65322.94;5117335;28;20475;-67
2023/04/06 05:57:50;;;;;;;10.00;9.03;;;;;;;-145.52;100.00;65322.94;5118607;28;20680;-70
2023/04/06 06:00:20;;;;;;;11.80;9.13;;;;;;;-145.52;100.00;65322.94;5117553;28;20461;-70
2023/04/06 06:02:47;;;;;;;12.03;8.97;;;;;;;-145.52;100.00;65322.94;5117447;28;20454;-68
2023/04/06 06:05:13;;;;;;;9.80;8.90;;;;;;;-145.52;100.00;65322.94;5117322;27;20448;-68
2023/04/06 06:07:41;;;;;;;9.20;8.30;;;;;;;-145.52;100.00;65322.94;5117200;28;20935;-68
2023/04/06 06:10:09;;;;;;;9.93;8.20;;;;;;;-145.52;100.00;65322.94;5115919;28;20524;-69
2023/04/06 06:12:36;;;;;;;13.60;10.13;;;;;;;-145.52;100.00;65322.94;5117693;28;20446;-69
2023/04/06 06:15:05;;;;;;;9.83;8.73;;;;;;;-145.52;100.00;65322.94;5116307;28;20458;-69
2023/04/06 06:17:31;;;;;;;9.27;8.30;;;;;;;-145.52;100.00;65322.94;5116917;28;20466;-68
2023/04/06 06:19:58;;;;;;;8.33;7.50;;;;;;;-145.52;100.00;65322.94;5116649;28;20906;-70
2023/04/06 06:22:25;;;;;;;10.37;9.10;;;;;;;-145.52;100.00;65322.94;5116237;27;20478;-70
2023/04/06 06:24:52;;;;;;;10.60;9.40;;;;;;;-145.52;100.00;65322.94;5118324;28;20450;-70
2023/04/06 06:27:19;;;;;;;9.40;8.47;;;;;;;-145.52;100.00;65322.94;5116593;28;20509;-69
2023/04/06 06:29:45;;;;;;;10.20;8.83;;;;;;;-145.52;100.00;65322.94;5117871;28;20446;-68
2023/04/06 06:32:13;;;;;;;8.90;8.00;;;;;;;-145.52;100.00;65322.94;5116841;28;20474;-69
2023/04/06 06:34:40;;;;;;;10.63;9.17;;;;;;;-145.52;100.00;65322.94;5126644;28;20446;-70
2023/04/06 06:37:07;;;;;;;13.00;9.27;;;;;;;-145.52;100.00;65322.94;5117611;28;20477;-70
2023/04/06 06:39:34;;;;;;;10.57;8.90;;;;;;;-145.52;100.00;65322.94;5116765;28;20446;-70
2023/04/06 06:42:01;;;;;;;11.00;9.43;;;;;;;-145.52;100.00;65322.94;5116462;28;20937;-69
2023/04/06 06:44:28;;;;;;;11.70;8.40;;;;;;;-145.52;100.00;65322.94;5114614;28;21003;-69
2023/04/06 06:46:55;;;;;;;13.13;9.17;;;;;;;-145.52;100.00;65322.94;5117682;28;20500;-69
2023/04/06 06:49:23;;;;;;;9.27;8.37;;;;;;;-145.52;100.00;65322.94;5118627;28;20479;-71
2023/04/06 06:51:49;;;;;;;9.20;8.30;;;;;;;-145.52;100.00;65322.94;5119695;27;20515;-71
2023/04/06 06:54:16;;;;;;;9.30;8.40;;;;;;;-145.52;100.00;65322.94;5120111;28;20465;-70
2023/04/06 06:56:43;;;;;;;9.90;8.90;;;;;;;-145.52;100.00;65322.94;5118612;28;20951;-71
2023/04/06 06:59:10;;;;;;;9.30;7.53;;;;;;;-145.52;100.00;65322.94;5120878;28;20454;-70
2023/04/06 07:01:37;;;;;;;10.50;8.97;;;;;;;-145.52;100.00;65322.94;5119292;28;20538;-69
2023/04/06 07:04:04;;;;;;;13.80;9.30;;;;;;;-145.52;100.00;65322.94;5119424;28;20465;-70
2023/04/06 07:06:32;;;;;;;15.23;8.13;;;;;;;-145.52;100.00;65322.94;5119304;28;20462;-71
2023/04/06 07:08:59;;;;;;;8.90;7.47;;;;;;;-145.52;100.00;65322.94;5118866;28;20453;-71
2023/04/06 07:11:26;;;;;;;12.60;9.40;;;;;;;-145.52;100.00;65322.94;5118398;28;20502;-70
2023/04/06 07:13:53;;;;;;;13.03;8.03;;;;;;;-145.52;100.00;65322.94;5119840;28;20655;-70
2023/04/06 07:16:19;;;;;;;11.10;9.10;;;;;;;-145.52;100.00;65322.94;5117653;28;20998;-70
2023/04/06 07:18:46;;;;;;;8.77;7.77;;;;;;;-145.52;100.00;65322.94;5116168;28;20515;-69
2023/04/06 07:21:13;;;;;;;12.03;9.50;;;;;;;-145.52;100.00;65322.94;5118414;28;20507;-70
2023/04/06 07:23:41;;;;;;;13.13;8.30;;;;;;;-145.52;100.00;65322.94;5119172;28;20454;-71
2023/04/06 07:26:08;;;;;;;9.80;8.27;;;;;;;-145.52;100.00;65322.94;5118074;28;20538;-71
2023/04/06 07:28:34;;;;;;;11.10;8.27;;;;;;;-145.52;100.00;65322.94;5122654;28;20445;-70
2023/04/06 07:31:01;;;;;;;12.10;9.30;;;;;;;-145.52;100.00;65322.94;5121859;28;20473;-70
2023/04/06 07:33:29;;;;;;;11.87;9.27;;;;;;;-145.52;100.00;65322.94;5123631;27;20881;-69
2023/04/06 07:35:56;;;;;;;11.90;9.60;;;;;;;-145.52;100.00;65322.94;5121328;28;20495;-70
2023/04/06 07:38:23;;;;;;;13.97;8.10;;;;;;;-145.52;100.00;65322.94;5121929;28;20445;-69
2023/04/06 07:40:51;;;;;;;9.80;8.80;;;;;;;-145.52;100.00;65322.94;5121762;27;20507;-68
2023/04/06 07:43:18;;;;;;;11.27;9.10;;;;;;;-145.52;100.00;65322.94;5122950;28;20937;-68
2023/04/06 07:45:45;;;;;;;9.50;8.50;;;;;;;-145.52;100.00;65322.94;5122453;28;20473;-68
2023/04/06 07:48:11;;;;;;;10.60;8.73;;;;;;;-145.52;100.00;65322.94;5122265;28;20450;-70
2023/04/06 07:50:38;;;;;;;11.10;9.20;;;;;;;-145.52;100.00;65322.94;5123071;28;20483;-70
2023/04/06 07:53:06;;;;;;;10.03;8.57;;;;;;;-145.52;100.00;65322.94;5122518;28;20453;-69
2023/04/06 07:55:32;;;;;;;10.03;8.13;;;;;;;-145.52;100.00;65322.94;5121788;28;20491;-69
2023/04/06 07:58:00;;;;;;;13.43;9.17;;;;;;;-145.52;100.00;65322.94;5122187;28;20639;-70
2023/04/06 08:00:27;;;;;;;9.37;8.40;;;;;;;-145.52;100.00;65322.94;5121738;28;20458;-70
2023/04/06 08:02:54;;;;;;;9.23;8.10;;;;;;;-145.52;100.00;65322.94;5121730;28;20489;-68
2023/04/06 08:05:24;;;;;;;11.20;8.80;;;;;;;-145.52;100.00;65322.94;5122076;28;20442;-68
2023/04/06 08:07:51;;;;;;;11.50;8.97;;;;;;;-145.52;100.00;65322.94;5123152;28;20450;-68
2023/04/06 08:10:18;;;;;;;10.00;9.00;;;;;;;-145.52;100.00;65322.94;5125229;27;20467;-70
2023/04/06 08:12:44;;;;;;;10.53;9.43;;;;;;;-145.52;100.00;65322.94;5127039;27;20445;-68
2023/04/06 08:15:13;;;;;;;9.57;8.67;;;;;;;-145.52;100.00;65322.94;5121412;28;20461;-69
2023/04/06 08:17:40;;;;;;;8.80;7.70;;;;;;;-145.52;100.00;65322.94;5120917;28;20449;-69
2023/04/06 08:20:10;;;;;;;9.07;7.87;;;;;;;-145.52;100.00;65322.94;5120291;28;20456;-69
2023/04/06 08:22:37;;;;;;;8.90;7.90;;;;;;;-145.52;100.00;65322.94;5121321;28;20469;-69
2023/04/06 08:25:04;;;;;;;10.87;8.40;;;;;;;-145.52;100.00;65322.94;5121439;28;20864;-70
2023/04/06 08:27:31;;;;;;;9.93;8.53;;;;;;;-145.52;100.00;65322.94;5121943;28;20492;-71
2023/04/06 08:29:58;;;;;;;12.90;8.90;;;;;;;-145.52;100.00;65322.94;5121854;28;20438;-71
2023/04/06 08:32:26;;;;;;;8.77;7.87;;;;;;;-145.52;100.00;65322.94;5120109;28;20496;-71
2023/04/06 08:34:54;;;;;;;9.37;8.33;;;;;;;-145.52;100.00;65322.94;5120462;28;20557;-70
2023/04/06 08:37:22;;;;;;;9.43;8.53;;;;;;;-145.52;100.00;65322.94;5113225;28;20565;-71
2023/04/06 08:39:48;;;;;;;9.67;8.70;;;;;;;-145.52;100.00;65322.94;5121262;28;20451;-70
2023/04/06 08:42:20;;;;;;;10.60;8.50;;;;;;;-145.52;100.00;65322.94;5121346;28;20488;-70
2023/04/06 08:44:48;;;;;;;9.83;8.40;;;;;;;-145.52;100.00;65322.94;5122287;28;20442;-70
2023/04/06 08:47:15;;;;;;;11.50;8.97;;;;;;;-145.52;100.00;65322.94;5119271;28;20486;-70
2023/04/06 08:49:44;;;;;;;13.90;8.13;;;;;;;-145.52;100.00;65322.94;5122183;28;20438;-70
2023/04/06 08:52:11;;;;;;;8.80;7.23;;;;;;;-145.52;100.00;65322.94;5121308;28;20482;-70
2023/04/06 08:54:38;;;;;;;11.33;7.57;;;;;;;-145.52;100.00;65322.94;5120786;28;20907;-70
2023/04/06 08:57:06;;;;;;;8.43;7.43;;;;;;;-145.52;100.00;65322.94;5120060;28;20986;-70
2023/04/06 08:59:33;;;;;;;9.20;8.30;;;;;;;-145.52;100.00;65322.94;5121848;28;20484;-70
2023/04/06 09:02:01;;;;;;;9.80;8.60;;;;;;;-145.52;100.00;65322.94;5119289;28;20485;-68
2023/04/06 09:04:28;;;;;;;9.17;8.27;;;;;;;-145.52;100.00;65322.94;5121616;28;20457;-69
2023/04/06 09:06:56;;;;;;;9.93;8.50;;;;;;;-145.52;100.00;65322.94;5120820;28;20854;-68
2023/04/06 09:09:24;;;;;;;10.00;8.00;;;;;;;-145.52;100.00;65322.94;5121082;28;20458;-68
2023/04/06 09:11:52;;;;;;;11.23;8.80;;;;;;;-145.52;100.00;65322.94;5114797;28;20509;-69
2023/04/06 09:14:35;;;;;;;8.53;7.37;;;;;;;-145.52;100.00;65322.94;5120820;28;20484;-69
2023/04/06 09:17:02;;;;;;;9.90;8.00;;;;;;;-145.52;100.00;65322.94;5119547;28;20509;-69
2023/04/06 09:19:28;;;;;;;8.70;7.50;;;;;;;-145.52;100.00;65322.94;5119649;28;20457;-69
2023/04/06 09:22:04;;;;;;;8.83;7.70;;;;;;;-145.52;100.00;65322.94;5120044;28;20966;-69
2023/04/06 09:24:41;;;;;;;9.80;8.60;;;;;;;-145.52;100.00;65322.94;5120465;28;20454;-69
2023/04/06 09:27:08;;;;;;;9.93;7.80;;;;;;;-145.52;100.00;65322.94;5121058;28;20466;-69
2023/04/06 09:29:36;;;;;;;10.97;8.17;;;;;;;-145.52;100.00;65322.94;5121200;28;20676;-69
2023/04/06 09:32:04;;;;;;;8.57;7.77;;;;;;;-145.52;100.00;65322.94;5119860;28;20573;-68
2023/04/06 09:34:31;;;;;;;10.67;7.47;;;;;;;-145.52;100.00;65322.94;5122006;27;20705;-68
2023/04/06 09:36:58;;;;;;;12.47;9.10;;;;;;;-145.52;100.00;65322.94;5120336;28;20473;-68
2023/04/06 09:39:26;;;;;;;12.37;8.50;;;;;;;-145.52;100.00;65322.94;5120323;28;20442;-69
2023/04/06 09:41:54;;;;;;;9.47;8.47;;;;;;;-145.52;100.00;65322.94;5120538;28;20482;-69
2023/04/06 09:44:21;;;;;;;10.00;7.40;;;;;;;-145.52;100.00;65322.94;5120702;28;20483;-68
2023/04/06 09:46:48;;;;;;;9.87;8.87;;;;;;;-145.52;100.00;65322.94;5119462;28;20502;-68
2023/04/06 09:49:15;;;;;;;9.90;8.13;;;;;;;-145.52;100.00;65322.94;5120631;28;20484;-69
2023/04/06 09:51:44;;;;;;;10.97;8.43;;;;;;;-145.52;100.00;65322.94;5120026;28;20523;-69
2023/04/06 09:54:12;;;;;;;10.13;9.10;;;;;;;-145.52;100.00;65322.94;5118845;28;20874;-69
2023/04/06 09:56:47;;;;;;;9.80;8.70;;;;;;;-145.52;100.00;65322.94;5106639;28;20485;-71
2023/04/06 09:59:15;;;;;;;10.90;8.50;;;;;;;-145.52;100.00;65322.94;5121054;28;20434;-71
2023/04/06 10:01:42;;;;;;;9.10;8.10;;;;;;;-145.52;100.00;65322.94;5118331;28;20462;-72
2023/04/06 10:04:17;;;;;;;11.03;8.60;;;;;;;-145.52;100.00;65322.94;5119834;28;20970;-69
2023/04/06 10:06:47;;;;;;;9.33;8.43;;;;;;;-145.52;100.00;65322.94;5119611;28;20506;-71
2023/04/06 10:09:14;;;;;;;11.33;9.60;;;;;;;-145.52;100.00;65322.94;5119708;28;20442;-72
2023/04/06 10:11:42;;;;;;;12.13;10.80;;;;;;;-145.52;100.00;65322.94;5119494;28;20960;-70
2023/04/06 10:14:11;;;;;;;11.00;9.70;;;;;;;-145.52;100.00;65322.94;5120457;28;20862;-71
2023/04/06 10:16:38;;;;;;;9.97;9.03;;;;;;;-145.52;100.00;65322.94;5117272;28;20529;-71
2023/04/06 10:19:14;;;;;;;9.83;8.83;;;;;;;-145.52;100.00;65322.94;5119322;28;20450;-72
2023/04/06 10:21:42;;;;;;;12.03;9.47;;;;;;;-145.52;100.00;65322.94;5119639;28;20458;-72
2023/04/06 10:24:12;;;;;;;10.10;8.93;;;;;;;-145.52;100.00;65322.94;5119627;28;20454;-71
2023/04/06 10:26:38;;;;;;;12.50;9.50;;;;;;;-145.52;100.00;65322.94;5117840;28;20482;-70
2023/04/06 10:29:07;;;;;;;10.13;9.03;;;;;;;-145.52;100.00;65322.94;5120334;28;20446;-70
2023/04/06 10:31:33;;;;;;;10.60;9.50;;;;;;;-145.52;100.00;65322.94;5117509;28;20474;-69
2023/04/06 10:34:02;;;;;;;14.80;10.13;;;;;;;-145.52;100.00;65322.94;5120558;28;20454;-72
2023/04/06 10:36:30;;;;;;;12.57;10.00;;;;;;;-145.52;100.00;65322.94;5119007;28;20478;-71
2023/04/06 10:38:58;;;;;;;10.87;9.77;;;;;;;-145.52;100.00;65322.94;5118287;28;20442;-72
2023/04/06 10:41:26;;;;;;;11.50;10.00;;;;;;;-145.52;100.00;65322.94;5116785;28;21009;-71
2023/04/06 10:43:57;;;;;;;10.97;8.40;;;;;;;-145.52;100.00;65322.94;5118727;28;20497;-71
2023/04/06 10:46:28;;;;;;;12.07;10.30;;;;;;;-145.52;100.00;65322.94;5117630;28;21001;-72
2023/04/06 10:48:55;;;;;;;13.47;9.53;;;;;;;-145.52;100.00;65322.94;5119493;28;20453;-69
2023/04/06 10:51:27;;;;;;;10.93;9.80;;;;;;;-145.52;100.00;65322.94;5119315;28;20482;-71
2023/04/06 10:53:54;;;;;;;12.57;8.77;;;;;;;-145.52;100.00;65322.94;5118662;28;20503;-70
2023/04/06 10:56:25;;;;;;;13.30;9.30;;;;;;;-145.52;100.00;65322.94;5117894;28;20470;-71
2023/04/06 10:58:55;;;;;;;13.60;9.73;;;;;;;-145.52;100.00;65322.94;5118708;28;20826;-71
2023/04/06 11:01:23;;;;;;;12.07;8.47;;;;;;;-145.52;100.00;65322.94;5119299;28;20466;-70
2023/04/06 11:03:54;;;;;;;10.40;9.07;;;;;;;-145.52;100.00;65322.94;5123012;28;20482;-72